Airport View

Enter AWOS ICAO identifier for current METAR.

ex. KFNL

KM25 201125Z AUTO 10004KT 10SM CLR 00/00 A3017 RMK AO2

20 Nov 2019 11:15

Frequency: 120.625

Phone: 270-247-2094

Other Area AWOS: KCEY - KPAH - KM30 - KPHT

TAF AMD KPAH 200917Z 2009/2106 00000KT 3SM BR SKC TEMPO 2009/2013 1 1/2SM BR FM201500 13005KT P6SM SCT250 FM202200 15005KT P6SM BKN250